Terminal Aerodrome Forecast
Issued by NWS El Paso, TX

Home | Current Version | Previous Version | Text Only | Print | Product List | Glossary On
Versions: 1 2 3 4 5 6 7 8 9 10 11 12 13
743
FTUS44 KEPZ 251128
TAFELP
TAF
KELP 251128Z 2512/2612 VRB05KT P6SM SKC
     FM251600 15008KT P6SM FEW250
     FM252100 22012G22KT P6SM SCT250
     FM260300 26012KT P6SM SCT250=

USA.gov is the U.S. government's official web portal to all federal, state and local government web resources and services.